Time;durP1;ratioP1;P1;durP2;ratioP2;P2;SDS_P1;SDS_P2;PMS_P1;PMS_P2;Temp;Humidity;BMP_temperature;BMP_pressure;BME280_temperature;BME280_humidity;BME280_pressure;Samples;Min_cycle;Max_cycle;Signal;HPM_P1;HPM_P2
2023/07/11 00:00:14;;;;;;;6.30;3.22;;;;;;;;;;6329284;28;20940;-80
2023/07/11 00:03:17;;;;;;;8.05;3.17;;;;;;;;;;6329955;28;20360;-80
2023/07/11 00:06:18;;;;;;;;;;;;;;;;;;6329988;28;20056;-80
2023/07/11 00:09:21;;;;;;;8.75;3.38;;;;;;;;;;6327341;28;19923;-79
2023/07/11 00:12:29;;;;;;;;;;;;;;;;;;6331505;28;20056;-80
2023/07/11 00:15:30;;;;;;;5.70;3.10;;;;;;;;;;6323190;28;19924;-79
2023/07/11 00:18:33;;;;;;;8.95;3.83;;;;;;;;;;6332355;28;20056;-79
2023/07/11 00:21:35;;;;;;;8.90;4.03;;;;;;;;;;6327574;28;20081;-79
2023/07/11 00:24:36;;;;;;;9.10;4.85;;;;;;;;;;6328130;28;20125;-79
2023/07/11 00:27:38;;;;;;;7.60;4.20;;;;;;;;;;6325595;28;20079;-79
2023/07/11 00:30:41;;;;;;;6.45;3.60;;;;;;;;;;6328005;28;20256;-78
2023/07/11 00:33:44;;;;;;;9.70;3.83;;;;;;;;;;6328289;28;20048;-80
2023/07/11 00:36:45;;;;;;;;;;;;;;;;;;6324344;28;20075;-79
2023/07/11 00:39:47;;;;;;;9.27;4.32;;;;;;;;;;6325462;28;19923;-79
2023/07/11 00:42:50;;;;;;;11.30;4.30;;;;;;;;;;6326139;28;20117;-80
2023/07/11 00:46:04;;;;;;;8.18;4.25;;;;;;;;;;6328717;28;20043;-78
2023/07/11 00:49:09;;;;;;;13.43;5.18;;;;;;;;;;6325649;28;20044;-80
2023/07/11 00:52:11;;;;;;;14.65;4.00;;;;;;;;;;6330555;28;20047;-79
2023/07/11 00:55:14;;;;;;;14.77;4.20;;;;;;;;;;6325800;28;20044;-79
2023/07/11 00:58:17;;;;;;;8.05;4.15;;;;;;;;;;6326139;28;20056;-79
2023/07/11 01:01:19;;;;;;;11.18;3.97;;;;;;;;;;6323924;28;20148;-79
2023/07/11 01:04:22;;;;;;;8.00;3.92;;;;;;;;;;6327240;28;20055;-78
2023/07/11 01:07:24;;;;;;;;;;;;;;;;;;6326126;28;20093;-79
2023/07/11 01:10:25;;;;;;;6.45;3.63;;;;;;;;;;6328656;28;19924;-79
2023/07/11 01:13:26;;;;;;;9.13;4.47;;;;;;;;;;6324334;28;20048;-79
2023/07/11 01:16:28;;;;;;;6.82;4.00;;;;;;;;;;6326183;28;20074;-79
2023/07/11 01:19:31;;;;;;;8.68;3.92;;;;;;;;;;6323848;28;20473;-80
2023/07/11 01:22:35;;;;;;;11.30;3.88;;;;;;;;;;6327637;28;20048;-80
2023/07/11 01:25:38;;;;;;;8.50;4.03;;;;;;;;;;6326579;28;20050;-79
2023/07/11 01:28:39;;;;;;;;;;;;;;;;;;6325626;28;20102;-78
2023/07/11 01:31:40;;;;;;;11.57;4.15;;;;;;;;;;6323545;28;19924;-79
2023/07/11 01:34:42;;;;;;;8.82;4.43;;;;;;;;;;6327414;28;20055;-80
2023/07/11 01:37:45;;;;;;;7.15;3.92;;;;;;;;;;6325104;28;20059;-78
2023/07/11 01:40:46;;;;;;;;;;;;;;;;;;6326600;28;20098;-80
2023/07/11 01:43:48;;;;;;;7.03;4.03;;;;;;;;;;6326450;28;19924;-79
2023/07/11 01:46:49;;;;;;;7.30;4.55;;;;;;;;;;6323159;28;20048;-78
2023/07/11 01:49:51;;;;;;;6.90;4.18;;;;;;;;;;6327061;28;20067;-79
2023/07/11 01:52:53;;;;;;;7.03;4.13;;;;;;;;;;6325920;28;20332;-79
2023/07/11 01:55:55;;;;;;;;;;;;;;;;;;6325948;28;20059;-79
2023/07/11 01:58:56;;;;;;;8.52;3.70;;;;;;;;;;6323453;28;19956;-78
2023/07/11 02:01:58;;;;;;;12.90;4.72;;;;;;;;;;6324239;28;20060;-78
2023/07/11 02:04:59;;;;;;;9.38;3.95;;;;;;;;;;6326243;28;20347;-78
2023/07/11 02:08:02;;;;;;;8.35;4.07;;;;;;;;;;6323663;28;20048;-79
2023/07/11 02:11:04;;;;;;;;;;;;;;;;;;6324654;28;20236;-80
2023/07/11 02:14:05;;;;;;;11.48;4.30;;;;;;;;;;6326115;28;20108;-79
2023/07/11 02:17:07;;;;;;;10.05;4.43;;;;;;;;;;6330963;28;20260;-78
2023/07/11 02:20:09;;;;;;;10.30;4.82;;;;;;;;;;6325834;28;20226;-79
2023/07/11 02:23:13;;;;;;;6.65;4.80;;;;;;;;;;6329275;28;20104;-79
2023/07/11 02:26:15;;;;;;;8.35;4.68;;;;;;;;;;6331065;28;20044;-78
2023/07/11 02:29:16;;;;;;;7.37;5.03;;;;;;;;;;6328796;28;20048;-79
2023/07/11 02:32:18;;;;;;;11.35;5.80;;;;;;;;;;6330915;28;20294;-78
2023/07/11 02:35:19;;;;;;;12.65;7.35;;;;;;;;;;6329340;28;20149;-78
2023/07/11 02:38:22;;;;;;;12.57;7.20;;;;;;;;;;6330538;28;20047;-78
2023/07/11 02:41:24;;;;;;;;;;;;;;;;;;6331481;28;20040;-78
2023/07/11 02:44:25;;;;;;;11.02;7.22;;;;;;;;;;6325728;28;20200;-79
2023/07/11 02:47:27;;;;;;;8.35;6.88;;;;;;;;;;6327618;28;20351;-78
2023/07/11 02:50:28;;;;;;;9.50;7.47;;;;;;;;;;6328810;28;20356;-79
2023/07/11 02:53:31;;;;;;;12.32;8.93;;;;;;;;;;6328398;28;20052;-79
2023/07/11 02:56:33;;;;;;;;;;;;;;;;;;6327517;28;20044;-79
2023/07/11 02:59:34;;;;;;;11.52;8.85;;;;;;;;;;6323729;28;19916;-79
2023/07/11 03:02:36;;;;;;;14.48;10.60;;;;;;;;;;6328613;28;20062;-78
2023/07/11 03:05:41;;;;;;;13.95;10.13;;;;;;;;;;6329878;28;20071;-79
2023/07/11 03:08:46;;;;;;;13.30;10.32;;;;;;;;;;6328763;28;20051;-79
2023/07/11 03:11:48;;;;;;;13.65;11.40;;;;;;;;;;6326865;28;20288;-81
2023/07/11 03:14:50;;;;;;;14.32;11.25;;;;;;;;;;6329710;28;20067;-79
2023/07/11 03:17:51;;;;;;;18.27;12.23;;;;;;;;;;6328272;28;20052;-79
2023/07/11 03:20:53;;;;;;;15.68;12.80;;;;;;;;;;6329110;28;20050;-78
2023/07/11 03:23:56;;;;;;;15.45;11.60;;;;;;;;;;6329005;28;20044;-79
2023/07/11 03:26:57;;;;;;;13.82;11.65;;;;;;;;;;6329120;28;20051;-79
2023/07/11 03:29:59;;;;;;;16.30;12.52;;;;;;;;;;6326215;28;20217;-78
2023/07/11 03:33:01;;;;;;;15.18;12.80;;;;;;;;;;6330726;28;20070;-79
2023/07/11 03:36:03;;;;;;;19.48;14.10;;;;;;;;;;6327056;28;20250;-79
2023/07/11 03:39:06;;;;;;;19.30;14.38;;;;;;;;;;6326763;28;20056;-78
2023/07/11 03:42:07;;;;;;;;;;;;;;;;;;6329500;28;20048;-79
2023/07/11 03:45:09;;;;;;;19.05;15.27;;;;;;;;;;6328980;28;19923;-78
2023/07/11 03:48:10;;;;;;;19.98;13.35;;;;;;;;;;6326126;28;20054;-78
2023/07/11 03:51:12;;;;;;;22.10;14.70;;;;;;;;;;6324734;28;20066;-78
2023/07/11 03:54:15;;;;;;;20.98;15.07;;;;;;;;;;6328096;28;20336;-79
2023/07/11 03:57:17;;;;;;;20.42;16.35;;;;;;;;;;6328559;28;20071;-79
2023/07/11 04:00:19;;;;;;;19.88;15.10;;;;;;;;;;6305550;28;20052;-79
2023/07/11 04:03:20;;;;;;;22.42;15.85;;;;;;;;;;6300644;28;20052;-79
2023/07/11 04:06:22;;;;;;;18.70;15.50;;;;;;;;;;6303597;28;20094;-77
2023/07/11 04:09:24;;;;;;;22.27;16.77;;;;;;;;;;6302377;28;20410;-78
2023/07/11 04:12:26;;;;;;;28.80;16.75;;;;;;;;;;6300237;28;20085;-79
2023/07/11 04:15:27;;;;;;;22.20;16.75;;;;;;;;;;6302334;28;20067;-80
2023/07/11 04:18:29;;;;;;;20.13;15.80;;;;;;;;;;6303538;28;20075;-79
2023/07/11 04:21:30;;;;;;;24.27;16.63;;;;;;;;;;6301977;28;20048;-79
2023/07/11 04:24:34;;;;;;;25.52;18.27;;;;;;;;;;6302405;28;20071;-79
2023/07/11 04:27:35;;;;;;;21.83;18.08;;;;;;;;;;6301867;28;20060;-80
2023/07/11 04:30:37;;;;;;;22.08;16.77;;;;;;;;;;6300046;28;20052;-77
2023/07/11 04:33:38;;;;;;;21.23;16.48;;;;;;;;;;6300508;28;20059;-77
2023/07/11 04:36:40;;;;;;;22.90;15.52;;;;;;;;;;6301396;28;20116;-78
2023/07/11 04:39:43;;;;;;;22.33;15.68;;;;;;;;;;6301963;28;20061;-77
2023/07/11 04:42:44;;;;;;;25.27;15.15;;;;;;;;;;6302544;28;20119;-78
2023/07/11 04:45:46;;;;;;;24.10;16.63;;;;;;;;;;6301521;28;20263;-81
2023/07/11 04:48:48;;;;;;;22.02;16.23;;;;;;;;;;6302526;28;20044;-80
2023/07/11 04:51:50;;;;;;;23.08;16.35;;;;;;;;;;6302025;28;20048;-79
2023/07/11 04:54:53;;;;;;;24.52;17.98;;;;;;;;;;6300579;28;20056;-80
2023/07/11 04:57:54;;;;;;;;;;;;;;;;;;6300466;28;20292;-80
2023/07/11 05:00:59;;;;;;;22.20;16.55;;;;;;;;;;6328696;28;19969;-80
2023/07/11 05:04:01;;;;;;;21.30;17.00;;;;;;;;;;6327322;28;20052;-80
2023/07/11 05:07:04;;;;;;;23.98;16.77;;;;;;;;;;6327538;28;20107;-81
2023/07/11 05:10:07;;;;;;;19.35;14.73;;;;;;;;;;6326987;28;20047;-78
2023/07/11 05:13:09;;;;;;;21.42;15.68;;;;;;;;;;6326183;28;20060;-79
2023/07/11 05:16:12;;;;;;;18.55;15.43;;;;;;;;;;6325737;28;20059;-78
2023/07/11 05:19:13;;;;;;;;;;;;;;;;;;6328854;28;20060;-79
2023/07/11 05:22:15;;;;;;;21.35;14.48;;;;;;;;;;6323953;28;19928;-79
2023/07/11 05:25:18;;;;;;;17.50;14.80;;;;;;;;;;6323757;28;20049;-79
2023/07/11 05:28:19;;;;;;;26.60;15.60;;;;;;;;;;6323126;28;20043;-79
2023/07/11 05:31:21;;;;;;;19.58;13.68;;;;;;;;;;6323544;28;20070;-80
2023/07/11 05:34:22;;;;;;;17.55;13.50;;;;;;;;;;6324510;28;20051;-79
2023/07/11 05:37:24;;;;;;;16.90;12.80;;;;;;;;;;6325437;28;20048;-79
2023/07/11 05:40:27;;;;;;;16.55;13.15;;;;;;;;;;6323449;28;20044;-78
2023/07/11 05:43:29;;;;;;;20.00;14.43;;;;;;;;;;6324789;28;20227;-78
2023/07/11 05:46:30;;;;;;;18.77;14.05;;;;;;;;;;6323899;28;20115;-79
2023/07/11 05:49:32;;;;;;;17.50;14.32;;;;;;;;;;6324460;28;20051;-78
2023/07/11 05:52:33;;;;;;;16.85;13.05;;;;;;;;;;6323204;28;20360;-78
2023/07/11 05:55:36;;;;;;;16.88;13.13;;;;;;;;;;6324987;28;20078;-78
2023/07/11 05:58:38;;;;;;;20.60;14.77;;;;;;;;;;6323436;28;20064;-85
2023/07/11 06:01:40;;;;;;;19.90;13.77;;;;;;;;;;6322519;28;20067;-82
2023/07/11 06:04:42;;;;;;;20.67;13.68;;;;;;;;;;6326245;28;20040;-82
2023/07/11 06:07:47;;;;;;;18.85;13.90;;;;;;;;;;6326094;28;20140;-83
2023/07/11 06:10:50;;;;;;;17.58;13.25;;;;;;;;;;6325516;28;20066;-83
2023/07/11 06:13:51;;;;;;;16.45;11.85;;;;;;;;;;6323558;28;20063;-83
2023/07/11 06:16:53;;;;;;;18.10;13.00;;;;;;;;;;6325096;28;20056;-82
2023/07/11 06:19:54;;;;;;;16.70;11.85;;;;;;;;;;6323472;28;20066;-83
2023/07/11 06:22:56;;;;;;;18.00;12.18;;;;;;;;;;6324402;28;20048;-83
2023/07/11 06:25:59;;;;;;;15.70;12.18;;;;;;;;;;6323523;28;20058;-85
2023/07/11 06:29:00;;;;;;;;;;;;;;;;;;6323256;28;20052;-82
2023/07/11 06:32:02;;;;;;;19.63;11.45;;;;;;;;;;6324356;28;19930;-81
2023/07/11 06:35:04;;;;;;;15.82;12.38;;;;;;;;;;6323058;28;20268;-83
2023/07/11 06:38:06;;;;;;;15.30;12.25;;;;;;;;;;6321529;28;20267;-83
2023/07/11 06:41:09;;;;;;;16.58;13.40;;;;;;;;;;6325594;28;20958;-82
2023/07/11 06:44:10;;;;;;;16.02;12.10;;;;;;;;;;6325432;28;20094;-84
2023/07/11 06:47:12;;;;;;;18.65;13.95;;;;;;;;;;6322568;28;20040;-83
2023/07/11 06:50:13;;;;;;;19.02;12.32;;;;;;;;;;6323961;28;20063;-83
2023/07/11 06:53:15;;;;;;;15.95;10.95;;;;;;;;;;6323404;28;20062;-83
2023/07/11 06:56:18;;;;;;;16.50;11.43;;;;;;;;;;6323179;28;20110;-82
2023/07/11 06:59:20;;;;;;;17.30;11.82;;;;;;;;;;6322743;28;20044;-83
2023/07/11 07:02:22;;;;;;;16.30;12.98;;;;;;;;;;6325530;28;20090;-84
2023/07/11 07:05:23;;;;;;;18.08;12.23;;;;;;;;;;6323663;28;20056;-83
2023/07/11 07:08:25;;;;;;;16.05;11.13;;;;;;;;;;6325689;28;20048;-83
2023/07/11 07:11:28;;;;;;;16.80;11.18;;;;;;;;;;6324583;28;20252;-83
2023/07/11 07:14:30;;;;;;;14.07;10.50;;;;;;;;;;6325037;28;20147;-83
2023/07/11 07:17:31;;;;;;;17.88;12.15;;;;;;;;;;6320451;28;20058;-83
2023/07/11 07:20:33;;;;;;;15.85;12.38;;;;;;;;;;6320891;28;20051;-84
2023/07/11 07:23:34;;;;;;;24.52;12.77;;;;;;;;;;6323057;28;20437;-82
2023/07/11 07:26:37;;;;;;;28.95;13.63;;;;;;;;;;6324904;28;20050;-83
2023/07/11 07:29:39;;;;;;;20.83;11.55;;;;;;;;;;6320351;28;20055;-83
2023/07/11 07:32:41;;;;;;;17.63;13.30;;;;;;;;;;6322973;28;20047;-83
2023/07/11 07:35:42;;;;;;;18.88;12.60;;;;;;;;;;6323661;28;20256;-84
2023/07/11 07:38:44;;;;;;;16.75;11.43;;;;;;;;;;6327427;28;20055;-84
2023/07/11 07:41:47;;;;;;;18.13;12.10;;;;;;;;;;6328732;28;20063;-83
2023/07/11 07:44:51;;;;;;;19.83;11.30;;;;;;;;;;6329447;28;20048;-84
2023/07/11 07:47:52;;;;;;;18.65;11.18;;;;;;;;;;6326522;28;20035;-83
2023/07/11 07:50:54;;;;;;;16.75;10.95;;;;;;;;;;6327116;28;20048;-83
2023/07/11 07:53:55;;;;;;;12.50;10.23;;;;;;;;;;6324215;28;20052;-83
2023/07/11 07:56:58;;;;;;;13.85;8.25;;;;;;;;;;6328247;28;20067;-83
2023/07/11 08:00:00;;;;;;;13.75;8.38;;;;;;;;;;6304745;28;20056;-83
2023/07/11 08:03:01;;;;;;;16.52;8.55;;;;;;;;;;6302794;28;20089;-83
2023/07/11 08:06:03;;;;;;;15.32;7.95;;;;;;;;;;6300372;28;20052;-84
2023/07/11 08:09:04;;;;;;;13.82;8.13;;;;;;;;;;6304113;28;20110;-83
2023/07/11 08:12:08;;;;;;;13.88;8.32;;;;;;;;;;6303138;28;20048;-83
2023/07/11 08:15:11;;;;;;;12.88;8.40;;;;;;;;;;6300078;28;20055;-84
2023/07/11 08:18:12;;;;;;;;;;;;;;;;;;6300687;28;20052;-84
2023/07/11 08:21:14;;;;;;;16.15;8.98;;;;;;;;;;6303058;28;20249;-84
2023/07/11 08:24:15;;;;;;;12.57;7.13;;;;;;;;;;6303093;28;20060;-83
2023/07/11 08:27:18;;;;;;;11.73;6.90;;;;;;;;;;6301616;28;20055;-83
2023/07/11 08:30:20;;;;;;;12.30;7.13;;;;;;;;;;6302563;28;20384;-83
2023/07/11 08:33:22;;;;;;;14.40;8.40;;;;;;;;;;6303009;28;20052;-84
2023/07/11 08:36:24;;;;;;;13.05;6.75;;;;;;;;;;6302495;28;20256;-84
2023/07/11 08:39:25;;;;;;;;;;;;;;;;;;6301417;28;20336;-84
2023/07/11 08:42:31;;;;;;;11.18;6.28;;;;;;;;;;6302624;28;20003;-83
2023/07/11 08:45:35;;;;;;;13.07;7.72;;;;;;;;;;6303460;28;20056;-83
2023/07/11 08:48:41;;;;;;;11.43;8.27;;;;;;;;;;6301456;28;20045;-83
2023/07/11 08:51:45;;;;;;;11.93;7.30;;;;;;;;;;6302286;28;20209;-84
2023/07/11 08:54:51;;;;;;;10.30;7.03;;;;;;;;;;6302747;28;20057;-84
2023/07/11 08:58:02;;;;;;;12.43;9.25;;;;;;;;;;6304964;28;20109;-83
2023/07/11 09:01:10;;;;;;;17.58;8.63;;;;;;;;;;6310780;28;20295;-82
2023/07/11 09:04:11;;;;;;;14.30;7.70;;;;;;;;;;6328115;28;20044;-84
2023/07/11 09:07:22;;;;;;;9.27;6.43;;;;;;;;;;6326980;28;20236;-84
2023/07/11 09:10:35;;;;;;;9.80;6.47;;;;;;;;;;6326809;28;20049;-84
2023/07/11 09:13:46;;;;;;;13.02;7.82;;;;;;;;;;6313585;28;20110;-83
2023/07/11 09:16:51;;;;;;;14.32;7.78;;;;;;;;;;6308346;28;20071;-84
2023/07/11 09:20:01;;;;;;;11.05;7.20;;;;;;;;;;6326025;28;20048;-84
2023/07/11 09:23:13;;;;;;;21.63;7.88;;;;;;;;;;6322583;28;20097;-83
2023/07/11 09:26:19;;;;;;;12.80;6.47;;;;;;;;;;6328115;28;20055;-84
2023/07/11 09:29:22;;;;;;;10.55;6.85;;;;;;;;;;6323546;28;20466;-83
2023/07/11 09:32:28;;;;;;;10.48;6.60;;;;;;;;;;6328134;28;20068;-84
2023/07/11 09:35:31;;;;;;;14.02;6.60;;;;;;;;;;6328777;28;20044;-84
2023/07/11 09:38:33;;;;;;;13.07;6.45;;;;;;;;;;6328524;28;20052;-84
2023/07/11 09:41:41;;;;;;;13.20;7.13;;;;;;;;;;6329837;28;20052;-85
2023/07/11 09:44:57;;;;;;;14.77;6.82;;;;;;;;;;6329871;28;20052;-85
2023/07/11 09:48:04;;;;;;;13.82;6.80;;;;;;;;;;6337748;28;20371;-85
2023/07/11 09:51:12;;;;;;;14.02;6.60;;;;;;;;;;6335133;28;20048;-84
2023/07/11 09:54:17;;;;;;;16.38;6.82;;;;;;;;;;6327557;28;20059;-79
2023/07/11 09:57:19;;;;;;;8.77;5.65;;;;;;;;;;6328542;28;20052;-79
2023/07/11 10:00:22;;;;;;;10.18;5.93;;;;;;;;;;6325963;28;20115;-82
2023/07/11 10:03:24;;;;;;;9.88;5.68;;;;;;;;;;6322779;28;20209;-79
2023/07/11 10:06:28;;;;;;;9.50;5.25;;;;;;;;;;6328377;28;20336;-79
2023/07/11 10:09:31;;;;;;;8.73;5.63;;;;;;;;;;6324810;28;20089;-85
2023/07/11 10:12:34;;;;;;;14.70;6.05;;;;;;;;;;6325478;28;20093;-86
2023/07/11 10:15:37;;;;;;;9.80;5.28;;;;;;;;;;6327805;28;20052;-82
2023/07/11 10:18:38;;;;;;;16.85;6.30;;;;;;;;;;6325426;28;20277;-81
2023/07/11 10:21:43;;;;;;;12.18;4.80;;;;;;;;;;6324615;28;20348;-82
2023/07/11 10:24:45;;;;;;;9.05;5.00;;;;;;;;;;6326194;28;20056;-82
2023/07/11 10:27:49;;;;;;;7.78;5.10;;;;;;;;;;6324343;28;20052;-81
2023/07/11 10:30:52;;;;;;;10.40;4.95;;;;;;;;;;6324333;28;20469;-82
2023/07/11 10:33:56;;;;;;;10.73;5.90;;;;;;;;;;6323980;28;20052;-81
2023/07/11 10:37:00;;;;;;;9.18;4.28;;;;;;;;;;6325359;28;20237;-82
2023/07/11 10:40:05;;;;;;;23.10;17.02;;;;;;;;;;6323033;28;20040;-80
2023/07/11 10:43:13;;;;;;;21.33;13.90;;;;;;;;;;6324926;28;20056;-79
2023/07/11 10:46:19;;;;;;;11.70;6.10;;;;;;;;;;6325871;28;20089;-80
2023/07/11 10:49:22;;;;;;;11.25;6.35;;;;;;;;;;6324197;28;20105;-81
2023/07/11 10:52:24;;;;;;;8.13;5.28;;;;;;;;;;6323981;28;20052;-80
2023/07/11 10:55:28;;;;;;;5.55;4.53;;;;;;;;;;6323662;28;20101;-82
2023/07/11 10:58:30;;;;;;;9.95;4.63;;;;;;;;;;6325924;28;20060;-81
2023/07/11 11:01:38;;;;;;;8.35;4.75;;;;;;;;;;6322940;28;20206;-81
2023/07/11 11:04:47;;;;;;;9.82;4.82;;;;;;;;;;6325093;28;20060;-83
2023/07/11 11:07:50;;;;;;;8.63;4.68;;;;;;;;;;6323221;28;20344;-81
2023/07/11 11:10:56;;;;;;;9.30;5.00;;;;;;;;;;6323967;28;20343;-83
2023/07/11 11:14:05;;;;;;;11.98;5.15;;;;;;;;;;6315323;28;20055;-82
2023/07/11 11:17:14;;;;;;;9.27;4.75;;;;;;;;;;6329932;28;20055;-82
2023/07/11 11:20:17;;;;;;;8.95;5.07;;;;;;;;;;6329360;28;20063;-81
2023/07/11 11:23:26;;;;;;;12.00;5.03;;;;;;;;;;6328970;28;20052;-81
2023/07/11 11:26:33;;;;;;;9.77;4.38;;;;;;;;;;6330879;28;20093;-83
2023/07/11 11:29:40;;;;;;;7.50;4.25;;;;;;;;;;6328726;28;20056;-81
2023/07/11 11:32:47;;;;;;;9.38;4.78;;;;;;;;;;6327143;28;20264;-82
2023/07/11 11:35:55;;;;;;;13.10;5.25;;;;;;;;;;6330292;28;20052;-79
2023/07/11 11:39:11;;;;;;;12.73;6.00;;;;;;;;;;6329801;28;20058;-80
2023/07/11 11:42:16;;;;;;;8.18;4.55;;;;;;;;;;6327594;28;20408;-80
2023/07/11 11:45:21;;;;;;;14.02;5.00;;;;;;;;;;6329508;28;20112;-81
2023/07/11 11:48:26;;;;;;;12.60;5.15;;;;;;;;;;6328290;28;20052;-79
2023/07/11 11:51:28;;;;;;;7.43;4.88;;;;;;;;;;6327903;28;21778;-81
2023/07/11 11:54:35;;;;;;;9.60;4.65;;;;;;;;;;6326456;28;20473;-82
2023/07/11 11:57:37;;;;;;;12.32;6.55;;;;;;;;;;6329192;28;20292;-81
2023/07/11 12:00:39;;;;;;;13.15;6.47;;;;;;;;;;6329734;28;20172;-81
2023/07/11 12:03:44;;;;;;;15.45;13.20;;;;;;;;;;6328689;28;20363;-79
2023/07/11 12:06:46;;;;;;;30.08;22.80;;;;;;;;;;6328191;28;20113;-79
2023/07/11 12:09:48;;;;;;;10.27;5.90;;;;;;;;;;6329754;28;20209;-79
2023/07/11 12:12:54;;;;;;;24.08;13.73;;;;;;;;;;6329838;28;20052;-82
2023/07/11 12:15:57;;;;;;;24.20;14.65;;;;;;;;;;6329387;28;20117;-81
2023/07/11 12:19:00;;;;;;;38.80;28.02;;;;;;;;;;6330162;28;20050;-81
2023/07/11 12:22:05;;;;;;;10.93;5.93;;;;;;;;;;6326912;28;20097;-81
2023/07/11 12:25:18;;;;;;;10.02;4.80;;;;;;;;;;6329286;28;20063;-80
2023/07/11 12:28:23;;;;;;;11.43;5.00;;;;;;;;;;6327869;28;20046;-80
2023/07/11 12:31:25;;;;;;;8.73;5.50;;;;;;;;;;6328557;28;20255;-80
2023/07/11 12:34:29;;;;;;;10.23;4.68;;;;;;;;;;6328406;28;20049;-79
2023/07/11 12:37:33;;;;;;;6.05;4.38;;;;;;;;;;6327432;28;20059;-80
2023/07/11 12:40:39;;;;;;;10.80;5.18;;;;;;;;;;6327292;28;20113;-80
2023/07/11 12:43:42;;;;;;;10.75;4.90;;;;;;;;;;6329729;28;20047;-80
2023/07/11 12:46:44;;;;;;;8.23;4.85;;;;;;;;;;6328696;28;20216;-79
2023/07/11 12:49:48;;;;;;;9.25;4.20;;;;;;;;;;6327026;28;20101;-78
2023/07/11 12:52:57;;;;;;;6.43;4.50;;;;;;;;;;6326122;28;20051;-79
2023/07/11 12:55:58;;;;;;;11.40;4.43;;;;;;;;;;6328565;28;20209;-78
2023/07/11 12:59:00;;;;;;;9.02;4.32;;;;;;;;;;6327298;28;20066;-80
2023/07/11 13:02:02;;;;;;;10.00;3.85;;;;;;;;;;6327048;28;20059;-79
2023/07/11 13:05:11;;;;;;;9.85;4.22;;;;;;;;;;6328634;28;20055;-79
2023/07/11 13:08:13;;;;;;;8.15;4.00;;;;;;;;;;6327944;28;20059;-79
2023/07/11 13:11:18;;;;;;;7.47;4.22;;;;;;;;;;6326615;28;20245;-80
2023/07/11 13:14:21;;;;;;;9.05;4.20;;;;;;;;;;6326166;28;20064;-79
2023/07/11 13:17:24;;;;;;;9.90;4.00;;;;;;;;;;6326064;28;20086;-80
2023/07/11 13:20:28;;;;;;;9.90;3.88;;;;;;;;;;6326122;28;20229;-80
2023/07/11 13:23:31;;;;;;;13.52;3.67;;;;;;;;;;6326370;28;20060;-79
2023/07/11 13:26:33;;;;;;;12.48;4.65;;;;;;;;;;6328477;28;20055;-77
2023/07/11 13:29:36;;;;;;;10.48;4.22;;;;;;;;;;6327906;28;20060;-80
2023/07/11 13:32:38;;;;;;;7.85;4.10;;;;;;;;;;6326559;28;20061;-80
2023/07/11 13:35:50;;;;;;;11.55;3.97;;;;;;;;;;6325591;28;20048;-80
2023/07/11 13:38:52;;;;;;;13.40;3.97;;;;;;;;;;6325255;28;20059;-81
2023/07/11 13:41:55;;;;;;;8.98;4.18;;;;;;;;;;6326817;28;20047;-79
2023/07/11 13:44:57;;;;;;;12.93;4.07;;;;;;;;;;6327225;28;20048;-79
2023/07/11 13:48:01;;;;;;;8.57;3.83;;;;;;;;;;6324739;28;20125;-81
2023/07/11 13:51:16;;;;;;;10.25;3.80;;;;;;;;;;6326448;28;20044;-80
2023/07/11 13:54:21;;;;;;;9.25;4.68;;;;;;;;;;6324687;28;20067;-79
2023/07/11 13:57:22;;;;;;;12.57;4.20;;;;;;;;;;6325479;28;20044;-81
2023/07/11 14:00:24;;;;;;;10.45;4.50;;;;;;;;;;6326266;28;20059;-79
2023/07/11 14:03:25;;;;;;;9.20;4.32;;;;;;;;;;6324733;28;20308;-79
2023/07/11 14:06:28;;;;;;;10.95;4.60;;;;;;;;;;6328866;28;20059;-79
2023/07/11 14:09:30;;;;;;;11.18;4.50;;;;;;;;;;6321223;28;20048;-80
2023/07/11 14:12:31;;;;;;;8.75;4.18;;;;;;;;;;6325289;28;20052;-79
2023/07/11 14:15:33;;;;;;;14.55;4.32;;;;;;;;;;6324190;28;20067;-79
2023/07/11 14:18:34;;;;;;;14.90;4.88;;;;;;;;;;6325296;28;20047;-79
2023/07/11 14:21:37;;;;;;;11.13;4.60;;;;;;;;;;6321858;28;20059;-81
2023/07/11 14:24:41;;;;;;;12.13;4.45;;;;;;;;;;6326136;28;20055;-80
2023/07/11 14:27:42;;;;;;;30.88;21.55;;;;;;;;;;6322440;28;20067;-76
2023/07/11 14:30:45;;;;;;;13.25;4.82;;;;;;;;;;6323692;28;20059;-76
2023/07/11 14:33:47;;;;;;;12.75;5.57;;;;;;;;;;6322149;28;20058;-77
2023/07/11 14:36:48;;;;;;;;;;;;;;;;;;6324357;28;20054;-79
2023/07/11 14:39:53;;;;;;;15.02;3.88;;;;;;;;;;6323979;28;20036;-80
2023/07/11 14:42:54;;;;;;;8.75;4.00;;;;;;;;;;6324672;28;20055;-79
2023/07/11 14:45:56;;;;;;;12.45;3.83;;;;;;;;;;6324159;28;20056;-79
2023/07/11 14:48:57;;;;;;;11.38;4.07;;;;;;;;;;6325652;28;20044;-79
2023/07/11 14:51:59;;;;;;;10.52;3.75;;;;;;;;;;6322772;28;20052;-78
2023/07/11 14:55:02;;;;;;;12.13;4.28;;;;;;;;;;6323362;28;20058;-80
2023/07/11 14:58:05;;;;;;;14.20;4.18;;;;;;;;;;6323236;28;20036;-79
2023/07/11 15:01:11;;;;;;;10.43;4.15;;;;;;;;;;6324851;28;20052;-78
2023/07/11 15:04:13;;;;;;;18.58;4.75;;;;;;;;;;6326833;28;20044;-79
2023/07/11 15:07:14;;;;;;;18.00;4.55;;;;;;;;;;6323870;28;20062;-79
2023/07/11 15:10:18;;;;;;;11.10;4.25;;;;;;;;;;6322400;28;20040;-79
2023/07/11 15:13:19;;;;;;;10.73;3.85;;;;;;;;;;6324413;28;20054;-79
2023/07/11 15:16:21;;;;;;;15.57;4.75;;;;;;;;;;6323707;28;20274;-80
2023/07/11 15:19:23;;;;;;;10.00;4.50;;;;;;;;;;6324529;28;20134;-80
2023/07/11 15:22:25;;;;;;;10.43;4.30;;;;;;;;;;6324544;28;20036;-80
2023/07/11 15:25:30;;;;;;;14.00;4.93;;;;;;;;;;6325992;28;20086;-78
2023/07/11 15:28:32;;;;;;;12.50;4.30;;;;;;;;;;6323803;28;20374;-79
2023/07/11 15:31:34;;;;;;;13.15;4.05;;;;;;;;;;6322902;28;20110;-79
2023/07/11 15:34:35;;;;;;;10.50;4.15;;;;;;;;;;6325607;28;20111;-80
2023/07/11 15:37:38;;;;;;;9.70;4.25;;;;;;;;;;6324413;28;20047;-79
2023/07/11 15:40:41;;;;;;;12.57;4.25;;;;;;;;;;6321001;28;20132;-81
2023/07/11 15:43:43;;;;;;;13.00;4.80;;;;;;;;;;6306460;28;20246;-81
2023/07/11 15:46:45;;;;;;;11.77;4.10;;;;;;;;;;6323234;28;20051;-79
2023/07/11 15:49:46;;;;;;;11.63;4.78;;;;;;;;;;6323904;28;20052;-79
2023/07/11 15:52:48;;;;;;;19.55;5.10;;;;;;;;;;6323866;28;20051;-81
2023/07/11 15:55:51;;;;;;;12.93;4.18;;;;;;;;;;6325667;28;20071;-82
2023/07/11 15:58:52;;;;;;;12.07;4.75;;;;;;;;;;6315494;28;20052;-80
2023/07/11 16:01:54;;;;;;;18.65;4.70;;;;;;;;;;6303669;28;20040;-81
2023/07/11 16:04:55;;;;;;;12.90;4.65;;;;;;;;;;6305147;28;20123;-79
2023/07/11 16:07:57;;;;;;;16.23;4.63;;;;;;;;;;6302759;28;20064;-80
2023/07/11 16:11:01;;;;;;;13.90;5.30;;;;;;;;;;6302385;28;20327;-81
2023/07/11 16:14:02;;;;;;;11.85;4.22;;;;;;;;;;6302070;28;20058;-81
2023/07/11 16:17:04;;;;;;;11.48;4.13;;;;;;;;;;6304048;28;20045;-82
2023/07/11 16:20:14;;;;;;;11.75;4.72;;;;;;;;;;6303611;28;20044;-81
2023/07/11 16:23:18;;;;;;;11.23;4.72;;;;;;;;;;6302654;28;20053;-82
2023/07/11 16:26:24;;;;;;;13.73;4.95;;;;;;;;;;6304900;28;20044;-82
2023/07/11 16:29:26;;;;;;;14.32;4.65;;;;;;;;;;6302714;28;20053;-80
2023/07/11 16:32:28;;;;;;;17.55;4.70;;;;;;;;;;6302800;28;20093;-80
2023/07/11 16:35:30;;;;;;;17.27;5.50;;;;;;;;;;6302457;28;20063;-80
2023/07/11 16:38:34;;;;;;;10.10;4.70;;;;;;;;;;6302029;28;20044;-82
2023/07/11 16:41:37;;;;;;;13.30;4.60;;;;;;;;;;6301592;28;20295;-81
2023/07/11 16:44:38;;;;;;;14.25;4.88;;;;;;;;;;6300319;28;20048;-81
2023/07/11 16:47:41;;;;;;;13.23;4.53;;;;;;;;;;6299740;28;20056;-80
2023/07/11 16:50:42;;;;;;;17.92;4.97;;;;;;;;;;6302604;28;20604;-80
2023/07/11 16:53:43;;;;;;;13.77;4.87;;;;;;;;;;6301880;28;20052;-82
2023/07/11 16:56:47;;;;;;;10.83;4.13;;;;;;;;;;6302172;28;20470;-82
2023/07/11 16:59:49;;;;;;;14.77;4.40;;;;;;;;;;6300954;28;20048;-81
2023/07/11 17:02:51;;;;;;;13.18;5.03;;;;;;;;;;6302962;28;20056;-81
2023/07/11 17:05:52;;;;;;;9.23;4.18;;;;;;;;;;6303837;28;20059;-80
2023/07/11 17:08:55;;;;;;;16.33;4.75;;;;;;;;;;6301621;28;20463;-80
2023/07/11 17:11:58;;;;;;;9.32;4.63;;;;;;;;;;6300431;28;20044;-81
2023/07/11 17:14:59;;;;;;;12.50;4.22;;;;;;;;;;6302552;28;20053;-81
2023/07/11 17:18:01;;;;;;;13.05;4.78;;;;;;;;;;6301724;28;20299;-80
2023/07/11 17:21:02;;;;;;;11.60;4.67;;;;;;;;;;6302567;28;20060;-81
2023/07/11 17:24:05;;;;;;;8.10;4.30;;;;;;;;;;6300915;28;20371;-80
2023/07/11 17:27:11;;;;;;;14.52;4.40;;;;;;;;;;6301176;28;20691;-80
2023/07/11 17:30:14;;;;;;;11.13;5.00;;;;;;;;;;6301357;28;20048;-81
2023/07/11 17:33:16;;;;;;;11.48;4.47;;;;;;;;;;6299112;28;20060;-82
2023/07/11 17:36:18;;;;;;;15.25;5.03;;;;;;;;;;6300747;28;20044;-83
2023/07/11 17:39:21;;;;;;;9.05;4.65;;;;;;;;;;6301294;28;20044;-81
2023/07/11 17:42:25;;;;;;;14.40;4.47;;;;;;;;;;6300724;28;20244;-81
2023/07/11 17:45:27;;;;;;;10.15;4.43;;;;;;;;;;6301575;28;20320;-81
2023/07/11 17:48:28;;;;;;;13.35;4.82;;;;;;;;;;6300849;28;20049;-81
2023/07/11 17:51:30;;;;;;;11.52;4.65;;;;;;;;;;6300445;28;20113;-81
2023/07/11 17:54:33;;;;;;;10.68;5.30;;;;;;;;;;6302109;28;20387;-81
2023/07/11 17:57:38;;;;;;;9.45;4.95;;;;;;;;;;6301962;28;20060;-81
2023/07/11 18:00:40;;;;;;;12.77;5.00;;;;;;;;;;6325817;28;20086;-79
2023/07/11 18:03:42;;;;;;;15.35;6.05;;;;;;;;;;6324227;28;20328;-82
2023/07/11 18:06:43;;;;;;;14.05;5.18;;;;;;;;;;6324246;28;20052;-81